Time;durP1;ratioP1;P1;durP2;ratioP2;P2;SDS_P1;SDS_P2;PMS_P1;PMS_P2;Temp;Humidity;BMP_temperature;BMP_pressure;BME280_temperature;BME280_humidity;BME280_pressure;Samples;Min_cycle;Max_cycle;Signal;HPM_P1;HPM_P2
2023/11/19 00:01:00;;;;;;;3.50;2.07;;;;;;;;;;4383926;32;316541;-86
2023/11/19 00:03:27;;;;;;;2.57;2.00;;;;;;;;;;4383296;32;316439;-87
2023/11/19 00:05:53;;;;;;;2.77;2.30;;;;;;;;;;4395490;32;316027;-85
2023/11/19 00:08:20;;;;;;;3.47;2.70;;;;;;;;;;4407312;32;316196;-85
2023/11/19 00:10:48;;;;;;;7.33;2.73;;;;;;;;;;4388737;32;320132;-86
2023/11/19 00:13:16;;;;;;;3.03;2.20;;;;;;;;;;4408186;32;316359;-86
2023/11/19 00:15:43;;;;;;;2.47;1.90;;;;;;;;;;4403933;32;315986;-85
2023/11/19 00:18:12;;;;;;;3.53;2.23;;;;;;;;;;4411243;32;315449;-86
2023/11/19 00:20:39;;;;;;;2.50;1.90;;;;;;;;;;4412814;32;315814;-84
2023/11/19 00:23:05;;;;;;;2.37;2.07;;;;;;;;;;4388593;32;417327;-84
2023/11/19 00:25:32;;;;;;;2.20;2.00;;;;;;;;;;4396127;32;315353;-87
2023/11/19 00:28:00;;;;;;;5.20;2.53;;;;;;;;;;4386918;32;331687;-84
2023/11/19 00:30:27;;;;;;;3.20;2.37;;;;;;;;;;4400578;32;316242;-86
2023/11/19 00:32:54;;;;;;;3.07;2.17;;;;;;;;;;4401611;32;334480;-85
2023/11/19 00:35:21;;;;;;;2.93;2.23;;;;;;;;;;4415550;32;316158;-87
2023/11/19 00:37:49;;;;;;;2.37;2.17;;;;;;;;;;4405201;32;315935;-86
2023/11/19 00:40:18;;;;;;;2.43;1.80;;;;;;;;;;4415902;32;316261;-88
2023/11/19 00:42:45;;;;;;;2.47;2.10;;;;;;;;;;4405385;32;316252;-88
2023/11/19 00:45:13;;;;;;;2.67;2.13;;;;;;;;;;4411431;32;316240;-89
2023/11/19 00:47:39;;;;;;;2.17;1.70;;;;;;;;;;4400015;32;315396;-85
2023/11/19 00:50:09;;;;;;;3.13;2.30;;;;;;;;;;4386318;32;415368;-83
2023/11/19 00:52:36;;;;;;;2.13;1.93;;;;;;;;;;4400136;32;316074;-84
2023/11/19 00:55:03;;;;;;;2.77;1.77;;;;;;;;;;4389618;32;316263;-85
2023/11/19 00:57:32;;;;;;;2.87;2.10;;;;;;;;;;4398288;32;315558;-84
2023/11/19 00:59:59;;;;;;;2.20;1.83;;;;;;;;;;4389301;32;316378;-88
2023/11/19 01:02:27;;;;;;;3.03;2.17;;;;;;;;;;4400118;32;315547;-86
2023/11/19 01:04:55;;;;;;;3.37;2.40;;;;;;;;;;4390073;32;316272;-88
2023/11/19 01:07:24;;;;;;;2.80;1.90;;;;;;;;;;4397410;32;340179;-85
2023/11/19 01:09:50;;;;;;;2.07;1.80;;;;;;;;;;4388429;32;316084;-82
2023/11/19 01:12:17;;;;;;;2.10;1.90;;;;;;;;;;4399497;32;316171;-87
2023/11/19 01:14:44;;;;;;;3.40;2.53;;;;;;;;;;4388525;32;316580;-89
2023/11/19 01:17:11;;;;;;;2.03;1.83;;;;;;;;;;4400402;32;316442;-85
2023/11/19 01:19:39;;;;;;;2.97;2.37;;;;;;;;;;4400239;32;316292;-83
2023/11/19 01:22:06;;;;;;;2.20;2.00;;;;;;;;;;4390994;32;316034;-84
2023/11/19 01:24:32;;;;;;;1.97;1.80;;;;;;;;;;4400572;32;316565;-89
2023/11/19 01:26:59;;;;;;;2.33;2.00;;;;;;;;;;4389550;32;316320;-89
2023/11/19 01:29:26;;;;;;;3.30;2.00;;;;;;;;;;4398883;32;315714;-90
2023/11/19 01:31:53;;;;;;;5.27;2.40;;;;;;;;;;4403137;32;329118;-82
2023/11/19 01:34:20;;;;;;;2.63;2.17;;;;;;;;;;4415458;32;316476;-87
2023/11/19 01:36:49;;;;;;;2.47;2.27;;;;;;;;;;4404883;32;316691;-85
2023/11/19 01:39:17;;;;;;;3.17;1.83;;;;;;;;;;4414644;32;316274;-83
2023/11/19 01:41:44;;;;;;;3.43;2.03;;;;;;;;;;4404649;32;316755;-84
2023/11/19 01:44:12;;;;;;;3.07;2.47;;;;;;;;;;4412181;32;315744;-83
2023/11/19 01:46:41;;;;;;;2.90;2.23;;;;;;;;;;4402611;32;316324;-83
2023/11/19 01:49:09;;;;;;;6.50;2.03;;;;;;;;;;4386394;32;416668;-84
2023/11/19 01:51:36;;;;;;;2.23;2.00;;;;;;;;;;4399936;32;316518;-83
2023/11/19 01:54:05;;;;;;;2.57;1.90;;;;;;;;;;4389686;32;316378;-83
2023/11/19 01:56:33;;;;;;;1.93;1.80;;;;;;;;;;4399477;32;316374;-86
2023/11/19 01:59:01;;;;;;;2.80;1.93;;;;;;;;;;4404484;32;316634;-82
2023/11/19 02:01:29;;;;;;;2.53;2.33;;;;;;;;;;4401773;32;315409;-87
2023/11/19 02:03:58;;;;;;;2.33;2.07;;;;;;;;;;4401529;32;321255;-84
2023/11/19 02:06:26;;;;;;;3.17;2.07;;;;;;;;;;4398555;32;315937;-83
2023/11/19 02:08:53;;;;;;;2.03;1.70;;;;;;;;;;4388326;32;316377;-87
2023/11/19 02:11:21;;;;;;;2.40;2.20;;;;;;;;;;4399293;32;316591;-84
2023/11/19 02:13:48;;;;;;;2.57;1.93;;;;;;;;;;4387729;32;316896;-84
2023/11/19 02:16:15;;;;;;;2.67;2.20;;;;;;;;;;4398903;32;315798;-82
2023/11/19 02:18:42;;;;;;;1.90;1.50;;;;;;;;;;4388714;32;316127;-87
2023/11/19 02:21:10;;;;;;;2.60;2.00;;;;;;;;;;4397419;32;339252;-85
2023/11/19 02:23:37;;;;;;;3.37;2.37;;;;;;;;;;4399205;32;316186;-84
2023/11/19 02:26:11;;;;;;;3.40;2.67;;;;;;;;;;4388747;32;316462;-86
2023/11/19 02:28:39;;;;;;;4.13;3.27;;;;;;;;;;4397111;32;315945;-85
2023/11/19 02:31:09;;;;;;;6.37;4.27;;;;;;;;;;4385473;32;399037;-83
2023/11/19 02:33:36;;;;;;;4.53;3.10;;;;;;;;;;4399196;32;315722;-82
2023/11/19 02:36:03;;;;;;;3.50;2.83;;;;;;;;;;4389252;32;316354;-82
2023/11/19 02:38:30;;;;;;;3.63;2.97;;;;;;;;;;4399086;32;316827;-83
2023/11/19 02:40:57;;;;;;;2.83;2.47;;;;;;;;;;4389084;32;316783;-83
2023/11/19 02:43:24;;;;;;;3.77;2.43;;;;;;;;;;4398643;32;316302;-82
2023/11/19 02:45:55;;;;;;;2.80;2.50;;;;;;;;;;4388488;32;316478;-83
2023/11/19 02:48:22;;;;;;;4.20;2.57;;;;;;;;;;4398722;32;316340;-83
2023/11/19 02:50:49;;;;;;;2.90;2.60;;;;;;;;;;4387715;32;316810;-85
2023/11/19 02:53:16;;;;;;;2.87;2.37;;;;;;;;;;4397969;32;316967;-83
2023/11/19 02:55:48;;;;;;;4.70;2.37;;;;;;;;;;4386622;32;315951;-85
2023/11/19 02:58:23;;;;;;;3.23;2.50;;;;;;;;;;4396523;32;315542;-84
2023/11/19 03:00:56;;;;;;;3.57;2.37;;;;;;;;;;4389062;32;316385;-84
2023/11/19 03:03:28;;;;;;;4.87;3.57;;;;;;;;;;4396928;32;350648;-85
2023/11/19 03:05:55;;;;;;;2.80;2.50;;;;;;;;;;4388306;32;316057;-85
2023/11/19 03:08:22;;;;;;;3.70;2.53;;;;;;;;;;4398897;32;316801;-85
2023/11/19 03:10:49;;;;;;;3.60;2.70;;;;;;;;;;4386315;32;316511;-88
2023/11/19 03:13:16;;;;;;;2.37;2.17;;;;;;;;;;4397047;32;316524;-87
2023/11/19 03:15:44;;;;;;;2.63;2.33;;;;;;;;;;4385138;32;346827;-86
2023/11/19 03:18:12;;;;;;;3.13;2.10;;;;;;;;;;4397173;32;316198;-88
2023/11/19 03:20:39;;;;;;;3.07;2.50;;;;;;;;;;4397585;32;316255;-88
2023/11/19 03:23:06;;;;;;;5.17;2.73;;;;;;;;;;4385483;32;373101;-82
2023/11/19 03:25:34;;;;;;;2.47;2.27;;;;;;;;;;4396990;32;316192;-84
2023/11/19 03:28:02;;;;;;;3.30;2.30;;;;;;;;;;4386773;32;316609;-87
2023/11/19 03:30:29;;;;;;;3.17;2.87;;;;;;;;;;4397031;32;316183;-85
2023/11/19 03:32:57;;;;;;;3.90;2.50;;;;;;;;;;4388412;32;316119;-83
2023/11/19 03:35:25;;;;;;;2.87;2.40;;;;;;;;;;4396941;32;316462;-87
2023/11/19 03:37:52;;;;;;;3.77;2.27;;;;;;;;;;4387757;32;316765;-82
2023/11/19 03:40:19;;;;;;;5.27;2.30;;;;;;;;;;4398216;32;316457;-86
2023/11/19 03:42:46;;;;;;;2.87;2.33;;;;;;;;;;4386661;32;316474;-83
2023/11/19 03:45:14;;;;;;;3.97;2.20;;;;;;;;;;4397942;32;316707;-87
2023/11/19 03:47:41;;;;;;;2.13;1.93;;;;;;;;;;4374159;32;316420;-85
2023/11/19 03:50:09;;;;;;;2.17;1.97;;;;;;;;;;4384803;32;316818;-82
2023/11/19 03:52:37;;;;;;;4.60;2.40;;;;;;;;;;4373976;32;315957;-82
2023/11/19 03:55:05;;;;;;;3.77;2.43;;;;;;;;;;4397458;32;316620;-84
2023/11/19 03:57:32;;;;;;;2.37;2.03;;;;;;;;;;4381364;32;349508;-81
2023/11/19 03:59:59;;;;;;;3.03;2.73;;;;;;;;;;4383859;32;316612;-82
2023/11/19 04:02:28;;;;;;;4.23;2.73;;;;;;;;;;4373075;32;316500;-80
2023/11/19 04:04:56;;;;;;;3.97;2.73;;;;;;;;;;4390001;32;321188;-82
2023/11/19 04:07:22;;;;;;;5.13;2.83;;;;;;;;;;4387783;32;316430;-82
2023/11/19 04:09:50;;;;;;;4.73;3.33;;;;;;;;;;4399614;32;316197;-81
2023/11/19 04:12:17;;;;;;;4.23;2.87;;;;;;;;;;4389275;32;315183;-83
2023/11/19 04:14:45;;;;;;;3.93;2.87;;;;;;;;;;4398978;32;315926;-82
2023/11/19 04:17:11;;;;;;;6.13;3.00;;;;;;;;;;4399289;32;316952;-82
2023/11/19 04:19:41;;;;;;;4.33;3.17;;;;;;;;;;4386130;32;417677;-82
2023/11/19 04:22:08;;;;;;;4.87;3.33;;;;;;;;;;4400356;32;316616;-82
2023/11/19 04:24:34;;;;;;;2.97;2.50;;;;;;;;;;4389735;32;316502;-82
2023/11/19 04:27:03;;;;;;;5.80;3.27;;;;;;;;;;4399309;32;317126;-82
2023/11/19 04:29:31;;;;;;;3.50;2.67;;;;;;;;;;4389555;32;316126;-82
2023/11/19 04:31:58;;;;;;;3.60;3.10;;;;;;;;;;4399276;32;316555;-82
2023/11/19 04:34:25;;;;;;;3.13;2.63;;;;;;;;;;4389991;32;316352;-87
2023/11/19 04:36:52;;;;;;;4.93;2.57;;;;;;;;;;4399229;32;316732;-88
2023/11/19 04:39:19;;;;;;;5.70;2.87;;;;;;;;;;4389385;32;328385;-87
2023/11/19 04:41:50;;;;;;;4.13;3.00;;;;;;;;;;4398802;32;315470;-87
2023/11/19 04:44:18;;;;;;;7.47;3.10;;;;;;;;;;4389642;32;316217;-86
2023/11/19 04:46:45;;;;;;;4.30;2.80;;;;;;;;;;4400055;32;316666;-88
2023/11/19 04:49:12;;;;;;;6.67;2.97;;;;;;;;;;4399952;32;315899;-84
2023/11/19 04:51:41;;;;;;;5.50;3.13;;;;;;;;;;4386002;32;417438;-83
2023/11/19 04:54:08;;;;;;;4.23;2.67;;;;;;;;;;4398568;32;355263;-85
2023/11/19 04:56:36;;;;;;;4.83;3.33;;;;;;;;;;4393250;32;316581;-82
2023/11/19 04:59:03;;;;;;;3.17;2.37;;;;;;;;;;4399123;32;315892;-82
2023/11/19 05:01:31;;;;;;;3.87;2.47;;;;;;;;;;4389154;32;316769;-82
2023/11/19 05:03:59;;;;;;;3.60;3.00;;;;;;;;;;4399935;32;316630;-82
2023/11/19 05:06:27;;;;;;;4.13;3.30;;;;;;;;;;4388444;32;315802;-81
2023/11/19 05:08:55;;;;;;;4.20;3.07;;;;;;;;;;4398230;32;316841;-81
2023/11/19 05:11:21;;;;;;;2.97;2.30;;;;;;;;;;4388568;32;316469;-82
2023/11/19 05:13:48;;;;;;;3.10;2.50;;;;;;;;;;4397001;32;348985;-82
2023/11/19 05:16:15;;;;;;;2.23;2.03;;;;;;;;;;4389615;32;316924;-82
2023/11/19 05:18:43;;;;;;;3.27;2.83;;;;;;;;;;4399081;32;316818;-84
2023/11/19 05:21:10;;;;;;;4.60;2.67;;;;;;;;;;4397149;32;353361;-87
2023/11/19 05:23:37;;;;;;;6.43;3.40;;;;;;;;;;4389234;32;316681;-85
2023/11/19 05:26:05;;;;;;;5.03;3.90;;;;;;;;;;4398140;32;316930;-88
2023/11/19 05:28:31;;;;;;;4.50;3.57;;;;;;;;;;4387474;32;316440;-86
2023/11/19 05:30:59;;;;;;;2.57;2.37;;;;;;;;;;4398035;32;316026;-87
2023/11/19 05:33:27;;;;;;;3.20;2.67;;;;;;;;;;4389391;32;315249;-87
2023/11/19 05:35:55;;;;;;;3.63;3.00;;;;;;;;;;4399491;32;316735;-88
2023/11/19 05:38:22;;;;;;;3.57;2.70;;;;;;;;;;4388862;32;316056;-87
2023/11/19 05:40:49;;;;;;;3.00;2.50;;;;;;;;;;4398805;32;315586;-90
2023/11/19 05:43:17;;;;;;;3.07;2.60;;;;;;;;;;4388985;32;316258;-86
2023/11/19 05:45:43;;;;;;;3.53;2.80;;;;;;;;;;4398532;32;316394;-83
2023/11/19 05:48:10;;;;;;;2.70;2.30;;;;;;;;;;4398017;32;315918;-87
2023/11/19 05:50:37;;;;;;;2.50;2.30;;;;;;;;;;4388374;32;316779;-87
2023/11/19 05:53:09;;;;;;;2.50;2.10;;;;;;;;;;4398723;32;316227;-85
2023/11/19 05:55:37;;;;;;;2.90;2.50;;;;;;;;;;4387442;32;315707;-85
2023/11/19 05:58:06;;;;;;;4.77;3.40;;;;;;;;;;4398877;32;316021;-83
2023/11/19 06:00:35;;;;;;;3.37;2.90;;;;;;;;;;4388736;32;316369;-83
2023/11/19 06:03:02;;;;;;;4.73;3.73;;;;;;;;;;4400007;32;315898;-83
2023/11/19 06:05:29;;;;;;;3.40;2.87;;;;;;;;;;4388458;32;316461;-81
2023/11/19 06:07:57;;;;;;;3.27;2.80;;;;;;;;;;4398919;32;316446;-87
2023/11/19 06:10:30;;;;;;;3.93;2.77;;;;;;;;;;4388589;32;315833;-89
2023/11/19 06:12:59;;;;;;;2.73;2.27;;;;;;;;;;4398850;32;315858;-83
2023/11/19 06:15:26;;;;;;;2.53;2.10;;;;;;;;;;4388852;32;316610;-84
2023/11/19 06:17:53;;;;;;;3.90;2.70;;;;;;;;;;4399060;32;316399;-83
2023/11/19 06:20:20;;;;;;;3.50;3.10;;;;;;;;;;4388699;32;316312;-84
2023/11/19 06:22:47;;;;;;;8.23;5.70;;;;;;;;;;4398118;32;341292;-83
2023/11/19 06:25:15;;;;;;;6.30;4.17;;;;;;;;;;4386571;32;315768;-82
2023/11/19 06:27:43;;;;;;;8.03;4.80;;;;;;;;;;4398397;32;316155;-84
2023/11/19 06:30:11;;;;;;;5.70;4.47;;;;;;;;;;4397305;32;316310;-83
2023/11/19 06:32:38;;;;;;;5.00;3.53;;;;;;;;;;4386408;32;417393;-83
2023/11/19 06:35:06;;;;;;;4.63;3.03;;;;;;;;;;4402447;32;316454;-84
2023/11/19 06:37:33;;;;;;;6.47;4.27;;;;;;;;;;4388279;32;316482;-89
2023/11/19 06:40:00;;;;;;;3.00;2.70;;;;;;;;;;4398017;32;316612;-82
2023/11/19 06:42:26;;;;;;;3.33;2.60;;;;;;;;;;4387456;32;316468;-88
2023/11/19 06:44:57;;;;;;;4.60;3.50;;;;;;;;;;4396614;32;357632;-89
2023/11/19 06:47:23;;;;;;;4.30;3.05;;;;;;;;;;4387467;32;316326;-85
2023/11/19 06:49:50;;;;;;;5.33;4.70;;;;;;;;;;4396419;32;352034;-85
2023/11/19 06:52:17;;;;;;;9.67;6.17;;;;;;;;;;4388216;32;316336;-87
2023/11/19 06:54:45;;;;;;;7.77;7.00;;;;;;;;;;4398498;32;316527;-84
2023/11/19 06:57:12;;;;;;;7.07;6.10;;;;;;;;;;4398051;32;316276;-81
2023/11/19 06:59:39;;;;;;;6.50;5.73;;;;;;;;;;4384277;32;415647;-85
2023/11/19 07:02:07;;;;;;;5.00;4.50;;;;;;;;;;4397217;32;316708;-90
2023/11/19 07:04:34;;;;;;;5.50;4.30;;;;;;;;;;4388065;32;316623;-84
2023/11/19 07:07:01;;;;;;;39.10;18.67;;;;;;;;;;4397760;32;315729;-86
2023/11/19 07:09:27;;;;;;;15.77;8.97;;;;;;;;;;4378181;32;318397;-85
2023/11/19 07:11:54;;;;;;;10.50;6.73;;;;;;;;;;4397716;32;316962;-86
2023/11/19 07:14:23;;;;;;;11.10;8.23;;;;;;;;;;4387731;32;317973;-83
2023/11/19 07:16:50;;;;;;;7.47;5.87;;;;;;;;;;4398470;32;317343;-83
2023/11/19 07:19:19;;;;;;;5.80;4.13;;;;;;;;;;4388539;32;316491;-89
2023/11/19 07:21:46;;;;;;;6.20;4.47;;;;;;;;;;4400785;32;315569;-91
2023/11/19 07:24:14;;;;;;;4.83;3.93;;;;;;;;;;4388205;32;316282;-84
2023/11/19 07:26:43;;;;;;;9.23;5.57;;;;;;;;;;4396662;32;315568;-86
2023/11/19 07:29:10;;;;;;;14.73;9.63;;;;;;;;;;4396847;32;316388;-85
2023/11/19 07:31:37;;;;;;;20.20;12.93;;;;;;;;;;4387650;32;317319;-86
2023/11/19 07:34:05;;;;;;;11.23;8.10;;;;;;;;;;4399927;32;318707;-86
2023/11/19 07:36:33;;;;;;;16.77;8.27;;;;;;;;;;4386867;32;317891;-85
2023/11/19 07:39:00;;;;;;;8.93;6.80;;;;;;;;;;4398206;32;317373;-83
2023/11/19 07:41:27;;;;;;;13.30;7.37;;;;;;;;;;4386416;32;316425;-85
2023/11/19 07:43:54;;;;;;;13.07;7.10;;;;;;;;;;4396633;32;317418;-86
2023/11/19 07:46:21;;;;;;;8.43;5.53;;;;;;;;;;4381297;32;316741;-88
2023/11/19 07:48:48;;;;;;;8.03;5.43;;;;;;;;;;4400228;32;316080;-86
2023/11/19 07:51:16;;;;;;;7.63;5.10;;;;;;;;;;4387265;32;316378;-84
2023/11/19 07:53:45;;;;;;;3.50;3.20;;;;;;;;;;4408799;32;315803;-87
2023/11/19 07:56:12;;;;;;;9.17;6.10;;;;;;;;;;4408724;32;316108;-83
2023/11/19 07:58:38;;;;;;;4.90;3.27;;;;;;;;;;4388950;32;417715;-92
2023/11/19 08:01:06;;;;;;;6.13;4.50;;;;;;;;;;4413589;32;316529;-90
2023/11/19 08:03:34;;;;;;;7.10;5.20;;;;;;;;;;4403316;32;315861;-86
2023/11/19 08:06:01;;;;;;;7.93;6.57;;;;;;;;;;4397411;32;315613;-93
2023/11/19 08:08:29;;;;;;;5.33;4.07;;;;;;;;;;4386651;32;315836;-85
2023/11/19 08:10:57;;;;;;;4.77;3.43;;;;;;;;;;4396921;32;316429;-91
2023/11/19 08:13:24;;;;;;;6.00;5.20;;;;;;;;;;4387225;32;316635;-93
2023/11/19 08:15:52;;;;;;;4.37;3.97;;;;;;;;;;4396814;32;316222;-83
2023/11/19 08:18:19;;;;;;;8.30;5.27;;;;;;;;;;4385831;32;325847;-83
2023/11/19 08:20:48;;;;;;;7.07;5.50;;;;;;;;;;4394889;32;316567;-86
2023/11/19 08:23:15;;;;;;;6.37;4.83;;;;;;;;;;4389173;32;324670;-89
2023/11/19 08:25:42;;;;;;;5.20;4.13;;;;;;;;;;4410649;32;316124;-85
2023/11/19 08:28:10;;;;;;;5.93;5.33;;;;;;;;;;4409954;32;316605;-86
2023/11/19 08:30:37;;;;;;;7.77;4.70;;;;;;;;;;4393762;32;316655;-86
2023/11/19 08:33:05;;;;;;;5.67;4.67;;;;;;;;;;4395661;32;316377;-86
2023/11/19 08:35:32;;;;;;;7.00;6.30;;;;;;;;;;4385066;32;316286;-86
2023/11/19 08:37:59;;;;;;;4.43;3.80;;;;;;;;;;4395373;32;315665;-87
2023/11/19 08:40:26;;;;;;;4.20;3.30;;;;;;;;;;4385250;32;345683;-85
2023/11/19 08:42:53;;;;;;;5.10;4.00;;;;;;;;;;4396880;32;316866;-85
2023/11/19 08:45:22;;;;;;;4.33;3.60;;;;;;;;;;4386956;32;316203;-85
2023/11/19 08:47:48;;;;;;;4.03;3.63;;;;;;;;;;4395745;32;315935;-85
2023/11/19 08:50:15;;;;;;;4.70;4.07;;;;;;;;;;4386999;32;315636;-85
2023/11/19 08:52:42;;;;;;;4.90;4.10;;;;;;;;;;4396817;32;316343;-88
2023/11/19 08:55:10;;;;;;;3.90;2.70;;;;;;;;;;4398303;32;316295;-88
2023/11/19 08:57:38;;;;;;;3.07;2.77;;;;;;;;;;4387582;32;325525;-85
2023/11/19 09:00:07;;;;;;;3.80;2.93;;;;;;;;;;4397575;32;343628;-88
2023/11/19 09:02:36;;;;;;;5.93;3.60;;;;;;;;;;4389591;32;316609;-85
2023/11/19 09:05:03;;;;;;;4.47;3.30;;;;;;;;;;4399918;32;315861;-87
2023/11/19 09:07:30;;;;;;;9.27;5.77;;;;;;;;;;4389571;32;316548;-87
2023/11/19 09:09:57;;;;;;;7.27;4.90;;;;;;;;;;4399997;32;316457;-87
2023/11/19 09:12:24;;;;;;;7.30;5.30;;;;;;;;;;4388217;32;316347;-86
2023/11/19 09:14:52;;;;;;;4.63;3.60;;;;;;;;;;4398850;32;316593;-87
2023/11/19 09:17:19;;;;;;;7.30;5.27;;;;;;;;;;4388248;32;316555;-85
2023/11/19 09:19:47;;;;;;;9.93;6.30;;;;;;;;;;4398351;32;347250;-87
2023/11/19 09:22:14;;;;;;;10.17;7.77;;;;;;;;;;4388074;32;316504;-85
2023/11/19 09:24:41;;;;;;;7.07;5.57;;;;;;;;;;4398652;32;317312;-86
2023/11/19 09:27:08;;;;;;;6.30;4.80;;;;;;;;;;4398250;32;316353;-87
2023/11/19 09:29:35;;;;;;;6.50;4.40;;;;;;;;;;4388017;32;316061;-86
2023/11/19 09:32:01;;;;;;;9.27;6.33;;;;;;;;;;4398621;32;351933;-86
2023/11/19 09:34:28;;;;;;;7.27;4.67;;;;;;;;;;4389368;32;316961;-87
2023/11/19 09:36:57;;;;;;;20.30;9.13;;;;;;;;;;4399482;32;315614;-86
2023/11/19 09:39:25;;;;;;;12.67;7.90;;;;;;;;;;4387855;32;317285;-85
2023/11/19 09:41:53;;;;;;;17.30;7.77;;;;;;;;;;4399309;32;317281;-85
2023/11/19 09:44:20;;;;;;;21.20;9.70;;;;;;;;;;4389199;32;317909;-85
2023/11/19 09:46:48;;;;;;;11.87;6.90;;;;;;;;;;4399125;32;317911;-85
2023/11/19 09:49:18;;;;;;;12.00;6.63;;;;;;;;;;4389209;32;317274;-84
2023/11/19 09:51:45;;;;;;;11.57;7.10;;;;;;;;;;4399525;32;317276;-86
2023/11/19 09:54:13;;;;;;;22.50;11.53;;;;;;;;;;4398839;32;317306;-85
2023/11/19 09:56:41;;;;;;;9.30;6.13;;;;;;;;;;4385400;32;419416;-86
2023/11/19 09:59:10;;;;;;;14.50;8.30;;;;;;;;;;4383971;32;316610;-85
2023/11/19 10:01:37;;;;;;;31.97;19.17;;;;;;;;;;4384220;32;316742;-86
2023/11/19 10:04:05;;;;;;;7.43;5.03;;;;;;;;;;4398912;32;318584;-85
2023/11/19 10:06:32;;;;;;;12.77;4.77;;;;;;;;;;4387349;32;316621;-87
2023/11/19 10:08:59;;;;;;;4.10;2.90;;;;;;;;;;4398416;32;316923;-84
2023/11/19 10:11:28;;;;;;;2.97;2.63;;;;;;;;;;4389170;32;316209;-87
2023/11/19 10:13:55;;;;;;;18.43;10.77;;;;;;;;;;4399203;32;348203;-84
2023/11/19 10:16:29;;;;;;;7.37;4.93;;;;;;;;;;4387740;32;318235;-87
2023/11/19 10:18:57;;;;;;;8.70;4.40;;;;;;;;;;4396717;32;316567;-86
2023/11/19 10:21:27;;;;;;;7.50;6.10;;;;;;;;;;4368479;32;315695;-86
2023/11/19 10:23:57;;;;;;;9.27;6.03;;;;;;;;;;4382549;32;316029;-86
2023/11/19 10:26:24;;;;;;;8.70;5.20;;;;;;;;;;4387207;32;316170;-86
2023/11/19 10:28:52;;;;;;;11.30;6.73;;;;;;;;;;4397003;32;314606;-86
2023/11/19 10:31:24;;;;;;;15.23;8.50;;;;;;;;;;4382420;32;317886;-87
2023/11/19 10:33:51;;;;;;;6.57;4.50;;;;;;;;;;4394978;32;316635;-82
2023/11/19 10:36:19;;;;;;;5.50;3.53;;;;;;;;;;4387856;32;317468;-89
2023/11/19 10:38:53;;;;;;;7.37;5.30;;;;;;;;;;4397012;32;317651;-87
2023/11/19 10:41:28;;;;;;;6.50;4.73;;;;;;;;;;4387676;32;317542;-87
2023/11/19 10:43:56;;;;;;;5.83;4.50;;;;;;;;;;4396194;32;317387;-83
2023/11/19 10:46:26;;;;;;;9.37;4.63;;;;;;;;;;4385669;32;317606;-86
2023/11/19 10:48:53;;;;;;;10.00;7.13;;;;;;;;;;4397898;32;317309;-90
2023/11/19 10:51:23;;;;;;;26.80;15.63;;;;;;;;;;4387094;32;318700;-84
2023/11/19 10:53:51;;;;;;;11.60;6.93;;;;;;;;;;4398227;32;319240;-84
2023/11/19 10:56:20;;;;;;;42.37;23.03;;;;;;;;;;4386903;32;318378;-84
2023/11/19 10:58:49;;;;;;;28.57;18.93;;;;;;;;;;4396837;32;318089;-87
2023/11/19 11:01:21;;;;;;;26.87;14.40;;;;;;;;;;4386081;32;319373;-81
2023/11/19 11:03:51;;;;;;;46.33;24.87;;;;;;;;;;4386832;32;319579;-85
2023/11/19 11:06:19;;;;;;;19.83;10.77;;;;;;;;;;4384116;32;319233;-87
2023/11/19 11:08:47;;;;;;;13.97;9.00;;;;;;;;;;4396477;32;319223;-85
2023/11/19 11:11:17;;;;;;;7.87;4.40;;;;;;;;;;4385253;32;318646;-85
2023/11/19 11:13:44;;;;;;;3.43;3.13;;;;;;;;;;4395225;32;317630;-80
2023/11/19 11:16:11;;;;;;;5.23;3.47;;;;;;;;;;4393362;32;317456;-87
2023/11/19 11:18:40;;;;;;;5.70;3.23;;;;;;;;;;4382605;32;419078;-85
2023/11/19 11:21:10;;;;;;;4.63;3.57;;;;;;;;;;4382202;32;316647;-85
2023/11/19 11:24:14;;;;;;;3.10;2.80;;;;;;;;;;4378057;32;317266;-81
2023/11/19 11:27:02;;;;;;;3.77;2.50;;;;;;;;;;4344367;32;417427;-83
2023/11/19 11:29:38;;;;;;;6.50;5.17;;;;;;;;;;4371539;32;317415;-85
2023/11/19 11:32:18;;;;;;;6.70;5.33;;;;;;;;;;4394965;32;317369;-83
2023/11/19 11:35:00;;;;;;;5.03;3.37;;;;;;;;;;4394003;32;419421;-88
2023/11/19 11:37:33;;;;;;;8.07;5.87;;;;;;;;;;4383881;32;316833;-89
2023/11/19 11:40:00;;;;;;;2.40;2.20;;;;;;;;;;4400630;32;345159;-85
2023/11/19 11:42:36;;;;;;;7.67;4.53;;;;;;;;;;4391229;32;317115;-82
2023/11/19 11:45:07;;;;;;;9.20;6.40;;;;;;;;;;4402849;32;317184;-89
2023/11/19 11:48:12;;;;;;;6.87;4.70;;;;;;;;;;4390910;32;317222;-87
2023/11/19 11:50:59;;;;;;;4.27;3.70;;;;;;;;;;4382724;32;418078;-83
2023/11/19 11:53:26;;;;;;;2.93;2.63;;;;;;;;;;4399995;32;316669;-86
2023/11/19 11:55:55;;;;;;;4.13;3.00;;;;;;;;;;4401169;32;317421;-85
2023/11/19 11:58:26;;;;;;;3.77;2.57;;;;;;;;;;4387148;32;317742;-84
2023/11/19 12:00:53;;;;;;;5.27;3.40;;;;;;;;;;4402778;32;316866;-84
2023/11/19 12:03:22;;;;;;;3.33;2.27;;;;;;;;;;4402723;32;317656;-84
2023/11/19 12:05:50;;;;;;;4.07;3.67;;;;;;;;;;4400279;32;317528;-83
2023/11/19 12:08:21;;;;;;;5.03;3.47;;;;;;;;;;4386690;32;355561;-83
2023/11/19 12:10:49;;;;;;;5.33;3.37;;;;;;;;;;4396161;32;316697;-83
2023/11/19 12:13:18;;;;;;;4.60;3.10;;;;;;;;;;4392574;32;316943;-84
2023/11/19 12:16:09;;;;;;;5.20;2.77;;;;;;;;;;4411368;32;317432;-82
2023/11/19 12:18:36;;;;;;;4.27;3.20;;;;;;;;;;4395568;32;317187;-85
2023/11/19 12:21:05;;;;;;;5.30;3.63;;;;;;;;;;4406690;32;317432;-84
2023/11/19 12:23:34;;;;;;;2.30;2.03;;;;;;;;;;4385982;32;317685;-86
2023/11/19 12:26:01;;;;;;;5.90;3.47;;;;;;;;;;4396874;32;317623;-84
2023/11/19 12:28:28;;;;;;;3.87;3.13;;;;;;;;;;4385499;32;317487;-83
2023/11/19 12:31:08;;;;;;;13.87;6.73;;;;;;;;;;4406546;32;356682;-83
2023/11/19 12:33:37;;;;;;;16.07;8.87;;;;;;;;;;4392218;32;318904;-82
2023/11/19 12:36:06;;;;;;;15.97;8.43;;;;;;;;;;4400096;32;318280;-84
2023/11/19 12:38:34;;;;;;;16.77;9.00;;;;;;;;;;4388662;32;325364;-82
2023/11/19 12:41:05;;;;;;;27.77;11.57;;;;;;;;;;4405692;32;317140;-83
2023/11/19 12:43:34;;;;;;;6.27;3.80;;;;;;;;;;4405134;32;317924;-85
2023/11/19 12:46:01;;;;;;;17.87;9.43;;;;;;;;;;4415299;32;316497;-85
2023/11/19 12:48:28;;;;;;;4.87;3.23;;;;;;;;;;4404716;32;318701;-82
2023/11/19 12:50:57;;;;;;;8.67;5.47;;;;;;;;;;4414871;32;317176;-84
2023/11/19 12:53:25;;;;;;;8.37;3.90;;;;;;;;;;4401797;32;356286;-81
2023/11/19 12:55:55;;;;;;;3.87;3.43;;;;;;;;;;4410950;32;317355;-82
2023/11/19 12:58:32;;;;;;;4.47;3.93;;;;;;;;;;4388251;32;317797;-83
2023/11/19 13:01:03;;;;;;;5.43;4.10;;;;;;;;;;4398922;32;317884;-82
2023/11/19 13:03:33;;;;;;;6.37;4.27;;;;;;;;;;4389858;32;317333;-83
2023/11/19 13:06:05;;;;;;;8.17;3.80;;;;;;;;;;4399178;32;316886;-83
2023/11/19 13:08:39;;;;;;;5.13;3.97;;;;;;;;;;4387361;32;343361;-82
2023/11/19 13:11:08;;;;;;;5.07;3.77;;;;;;;;;;4399461;32;317302;-83
2023/11/19 13:13:57;;;;;;;8.77;4.73;;;;;;;;;;4389274;32;317481;-83
2023/11/19 13:16:24;;;;;;;7.63;4.67;;;;;;;;;;4388334;32;317208;-83
2023/11/19 13:18:51;;;;;;;10.00;6.50;;;;;;;;;;4399186;32;336597;-82
2023/11/19 13:21:18;;;;;;;10.83;6.97;;;;;;;;;;4388289;32;318425;-83
2023/11/19 13:23:46;;;;;;;8.70;4.83;;;;;;;;;;4399372;32;318507;-83
2023/11/19 13:26:14;;;;;;;7.10;4.60;;;;;;;;;;4399590;32;317328;-83
2023/11/19 13:28:41;;;;;;;16.83;14.67;;;;;;;;;;4385462;32;418226;-83
2023/11/19 13:31:08;;;;;;;33.87;18.33;;;;;;;;;;4398057;32;319435;-83
2023/11/19 13:33:36;;;;;;;5.90;4.20;;;;;;;;;;4388333;32;319337;-82
2023/11/19 13:36:05;;;;;;;9.03;5.83;;;;;;;;;;4399590;32;317520;-83
2023/11/19 13:38:33;;;;;;;8.13;5.17;;;;;;;;;;4389413;32;316703;-83
2023/11/19 13:41:00;;;;;;;7.70;6.03;;;;;;;;;;4398602;32;317515;-82
2023/11/19 13:43:29;;;;;;;7.93;4.27;;;;;;;;;;4388310;32;317196;-82
2023/11/19 13:45:56;;;;;;;16.27;4.60;;;;;;;;;;4399446;32;317158;-82
2023/11/19 13:48:23;;;;;;;7.33;5.40;;;;;;;;;;4387894;32;318276;-84
2023/11/19 13:50:51;;;;;;;9.47;5.93;;;;;;;;;;4399499;32;317135;-82
2023/11/19 13:53:18;;;;;;;10.80;6.07;;;;;;;;;;4389178;32;316353;-84
2023/11/19 13:55:45;;;;;;;11.57;5.40;;;;;;;;;;4399894;32;317479;-84
2023/11/19 13:58:12;;;;;;;6.53;4.33;;;;;;;;;;4398911;32;316706;-81
2023/11/19 14:00:41;;;;;;;11.17;5.93;;;;;;;;;;4386681;32;416883;-84
2023/11/19 14:03:09;;;;;;;9.43;5.90;;;;;;;;;;4399077;32;317813;-83
2023/11/19 14:05:36;;;;;;;9.93;5.37;;;;;;;;;;4386760;32;357334;-84
2023/11/19 14:08:03;;;;;;;14.67;6.70;;;;;;;;;;4397950;32;316412;-83
2023/11/19 14:10:30;;;;;;;10.30;6.13;;;;;;;;;;4377557;32;317551;-84
2023/11/19 14:12:58;;;;;;;14.40;7.00;;;;;;;;;;4383655;32;317672;-83
2023/11/19 14:15:25;;;;;;;14.10;6.57;;;;;;;;;;4380902;32;317711;-80
2023/11/19 14:17:55;;;;;;;17.33;7.60;;;;;;;;;;4392478;32;356597;-91
2023/11/19 14:20:22;;;;;;;17.93;9.27;;;;;;;;;;4384773;32;317463;-85
2023/11/19 14:22:50;;;;;;;18.97;10.80;;;;;;;;;;4406313;32;317508;-88
2023/11/19 14:25:17;;;;;;;18.87;10.80;;;;;;;;;;4390677;32;318622;-83
2023/11/19 14:27:45;;;;;;;17.10;10.07;;;;;;;;;;4403262;32;318013;-85
2023/11/19 14:30:14;;;;;;;17.43;10.50;;;;;;;;;;4409612;32;317548;-84
2023/11/19 14:32:44;;;;;;;22.23;11.73;;;;;;;;;;4385329;32;418888;-87